Time;durP1;ratioP1;P1;durP2;ratioP2;P2;SDS_P1;SDS_P2;PMS_P1;PMS_P2;Temp;Humidity;BMP_temperature;BMP_pressure;BME280_temperature;BME280_humidity;BME280_pressure;Samples;Min_cycle;Max_cycle;Signal;HPM_P1;HPM_P2
2023/05/30 00:00:32;;;;;;;11.23;2.42;;;14.00;90.80;;;;;;4918571;29;20158;-74
2023/05/30 00:02:58;;;;;;;13.25;2.70;;;14.00;90.80;;;;;;4923335;29;20548;-73
2023/05/30 00:05:24;;;;;;;9.90;2.45;;;14.00;90.90;;;;;;4906111;29;20795;-73
2023/05/30 00:07:50;;;;;;;12.95;3.45;;;14.00;91.00;;;;;;4919314;29;20416;-73
2023/05/30 00:10:16;;;;;;;13.40;3.33;;;13.80;91.70;;;;;;4925938;29;20039;-73
2023/05/30 00:12:42;;;;;;;13.07;2.90;;;13.80;91.60;;;;;;4904984;29;20071;-73
2023/05/30 00:15:08;;;;;;;13.57;2.80;;;13.50;92.40;;;;;;4918014;29;20054;-73
2023/05/30 00:17:35;;;;;;;12.45;2.55;;;13.60;92.10;;;;;;4921923;29;20060;-72
2023/05/30 00:20:03;;;;;;;12.07;3.20;;;13.60;92.10;;;;;;4910372;29;20047;-73
2023/05/30 00:22:29;;;;;;;12.02;2.72;;;13.60;92.30;;;;;;4922589;29;20380;-73
2023/05/30 00:24:59;;;;;;;12.90;2.80;;;13.50;92.30;;;;;;4934259;29;20063;-73
2023/05/30 00:27:25;;;;;;;13.18;3.05;;;13.50;92.90;;;;;;4942457;29;20130;-73
2023/05/30 00:29:51;;;;;;;20.27;3.10;;;13.50;92.70;;;;;;4927404;29;20123;-73
2023/05/30 00:32:16;;;;;;;15.88;3.03;;;13.40;92.80;;;;;;4938047;29;20468;-73
2023/05/30 00:34:42;;;;;;;11.13;2.90;;;13.30;93.00;;;;;;4922428;29;20048;-73
2023/05/30 00:37:08;;;;;;;14.02;2.97;;;13.00;93.60;;;;;;4920608;29;20086;-73
2023/05/30 00:39:35;;;;;;;11.88;2.92;;;13.10;93.60;;;;;;4936461;29;20071;-73
2023/05/30 00:42:02;;;;;;;13.57;2.72;;;13.20;93.50;;;;;;4937045;29;20123;-73
2023/05/30 00:44:28;;;;;;;13.90;2.90;;;13.10;93.90;;;;;;4923147;29;20054;-73
2023/05/30 00:46:53;;;;;;;9.70;2.60;;;13.10;93.80;;;;;;4926333;29;20369;-73
2023/05/30 00:49:19;;;;;;;13.23;2.65;;;13.00;93.80;;;;;;4908092;29;20055;-73
2023/05/30 00:51:45;;;;;;;13.95;3.00;;;13.00;94.00;;;;;;4909537;29;20133;-73
2023/05/30 00:54:11;;;;;;;18.23;3.13;;;13.00;93.90;;;;;;4916494;29;20758;-73
2023/05/30 00:56:36;;;;;;;14.98;3.15;;;13.00;94.00;;;;;;4905710;29;20047;-73
2023/05/30 00:59:04;;;;;;;14.18;2.85;;;12.90;94.40;;;;;;4924083;29;20052;-73
2023/05/30 01:01:32;;;;;;;12.98;2.90;;;13.00;94.20;;;;;;4925439;29;20294;-73
2023/05/30 01:03:59;;;;;;;10.73;2.38;;;12.90;94.30;;;;;;4936538;29;20047;-73
2023/05/30 01:06:27;;;;;;;11.77;2.83;;;12.90;94.40;;;;;;4921803;29;20059;-73
2023/05/30 01:08:54;;;;;;;14.35;2.80;;;12.80;94.80;;;;;;4917616;29;20159;-73
2023/05/30 01:11:26;;;;;;;13.38;3.05;;;12.70;95.00;;;;;;4918166;29;20114;-73
2023/05/30 01:13:55;;;;;;;16.23;3.03;;;12.70;95.20;;;;;;4918633;29;20044;-73
2023/05/30 01:16:23;;;;;;;;;;;12.70;95.40;;;;;;4912006;29;20051;-73
2023/05/30 01:19:01;;;;;;;19.75;3.40;;;12.60;95.90;;;;;;4941450;29;19921;-73
2023/05/30 01:21:27;;;;;;;17.40;3.28;;;12.50;96.30;;;;;;4925969;29;20671;-73
2023/05/30 01:24:32;;;;;;;15.70;3.20;;;12.50;96.50;;;;;;4921282;29;20063;-73
2023/05/30 01:27:24;;;;;;;16.95;3.65;;;12.30;97.00;;;;;;4927325;29;20145;-73
2023/05/30 01:29:51;;;;;;;15.63;3.90;;;12.40;97.00;;;;;;4917038;29;20050;-73
2023/05/30 01:32:19;;;;;;;14.73;3.45;;;12.40;97.20;;;;;;4937852;29;20078;-73
2023/05/30 01:34:45;;;;;;;14.10;3.20;;;12.40;96.70;;;;;;4938415;29;20400;-73
2023/05/30 01:37:11;;;;;;;16.20;3.30;;;12.40;96.60;;;;;;4920502;29;20051;-72
2023/05/30 01:39:38;;;;;;;15.10;3.58;;;12.40;96.70;;;;;;4943654;29;20055;-73
2023/05/30 01:42:19;;;;;;;18.45;4.18;;;12.40;96.80;;;;;;4920646;29;20048;-73
2023/05/30 01:45:07;;;;;;;13.52;3.22;;;12.40;96.90;;;;;;4918958;29;20050;-73
2023/05/30 01:47:46;;;;;;;16.67;3.45;;;12.40;96.90;;;;;;4915017;29;20496;-73
2023/05/30 01:50:16;;;;;;;13.80;3.00;;;12.40;97.00;;;;;;4938041;29;20127;-73
2023/05/30 01:52:44;;;;;;;21.08;3.92;;;12.40;97.10;;;;;;4938743;29;20039;-73
2023/05/30 01:55:10;;;;;;;15.18;3.60;;;12.40;97.20;;;;;;4919727;29;20066;-73
2023/05/30 01:57:39;;;;;;;16.17;3.35;;;12.30;97.40;;;;;;4920406;29;20449;-73
2023/05/30 02:00:05;;;;;;;18.13;4.30;;;12.30;97.70;;;;;;4920210;29;20441;-73
2023/05/30 02:02:32;;;;;;;17.52;3.42;;;12.30;97.70;;;;;;4922060;29;20063;-73
2023/05/30 02:04:57;;;;;;;18.65;4.57;;;12.30;97.90;;;;;;4935422;29;20059;-73
2023/05/30 02:07:23;;;;;;;17.88;3.75;;;12.20;97.90;;;;;;4919997;29;20039;-73
2023/05/30 02:09:49;;;;;;;16.77;4.00;;;12.20;98.10;;;;;;4917673;29;20047;-73
2023/05/30 02:12:15;;;;;;;15.20;3.10;;;12.10;98.50;;;;;;4922825;29;20087;-72
2023/05/30 02:14:43;;;;;;;20.02;3.72;;;12.10;98.50;;;;;;4919305;29;20071;-73
2023/05/30 02:17:09;;;;;;;13.07;3.47;;;12.10;98.60;;;;;;4935809;29;20461;-73
2023/05/30 02:19:35;;;;;;;17.77;4.03;;;12.00;98.80;;;;;;4934935;29;20055;-72
2023/05/30 02:22:00;;;;;;;21.77;3.90;;;12.00;99.00;;;;;;4935593;29;20604;-72
2023/05/30 02:24:26;;;;;;;15.57;3.83;;;12.00;99.10;;;;;;4930490;29;20056;-73
2023/05/30 02:26:52;;;;;;;16.05;3.75;;;12.00;99.30;;;;;;4935553;29;20062;-73
2023/05/30 02:29:17;;;;;;;15.32;3.92;;;12.00;99.30;;;;;;4937790;29;20051;-72
2023/05/30 02:31:43;;;;;;;22.55;4.60;;;11.90;99.50;;;;;;4937207;29;20043;-72
2023/05/30 02:34:09;;;;;;;17.30;3.92;;;11.90;99.60;;;;;;4922928;29;20040;-73
2023/05/30 02:36:38;;;;;;;14.32;4.10;;;11.80;99.90;;;;;;4919591;29;20672;-73
2023/05/30 02:39:07;;;;;;;16.35;3.50;;;11.80;99.90;;;;;;4935939;29;20507;-72
2023/05/30 02:41:33;;;;;;;17.13;3.08;;;11.80;99.90;;;;;;4903689;29;20106;-72
2023/05/30 02:43:58;;;;;;;17.27;3.63;;;11.70;99.90;;;;;;4941665;29;20119;-73
2023/05/30 02:46:25;;;;;;;20.45;4.53;;;11.60;99.90;;;;;;4917736;29;20126;-73
2023/05/30 02:48:50;;;;;;;15.93;4.35;;;11.60;99.90;;;;;;4919370;29;20130;-73
2023/05/30 02:51:16;;;;;;;18.52;3.60;;;11.70;99.90;;;;;;4906500;29;20146;-73
2023/05/30 02:53:43;;;;;;;18.70;4.60;;;11.60;99.90;;;;;;4935395;29;20538;-73
2023/05/30 02:56:09;;;;;;;17.40;3.80;;;11.60;99.90;;;;;;4922202;29;20047;-72
2023/05/30 02:58:35;;;;;;;20.35;4.53;;;11.50;99.90;;;;;;4935167;29;20111;-72
2023/05/30 03:01:00;;;;;;;21.50;4.90;;;11.50;99.90;;;;;;4936916;29;20441;-73
2023/05/30 03:03:26;;;;;;;26.27;5.35;;;11.60;99.90;;;;;;4903470;29;20131;-73
2023/05/30 03:05:53;;;;;;;22.63;4.10;;;11.50;99.90;;;;;;4925235;29;20057;-73
2023/05/30 03:08:19;;;;;;;18.90;4.65;;;11.60;99.90;;;;;;4921536;29;20051;-73
2023/05/30 03:10:45;;;;;;;19.23;4.25;;;11.40;99.90;;;;;;4919832;29;20046;-73
2023/05/30 03:13:11;;;;;;;23.17;4.53;;;11.50;99.90;;;;;;4938040;29;20054;-72
2023/05/30 03:15:39;;;;;;;21.23;4.40;;;11.50;99.90;;;;;;4934592;29;20399;-72
2023/05/30 03:18:04;;;;;;;20.83;4.87;;;11.50;99.90;;;;;;4931815;29;20047;-73
2023/05/30 03:20:31;;;;;;;21.65;4.25;;;11.50;99.90;;;;;;4938570;29;20059;-73
2023/05/30 03:22:58;;;;;;;19.13;3.38;;;11.30;99.90;;;;;;4922972;29;20082;-73
2023/05/30 03:25:23;;;;;;;20.50;4.20;;;11.40;99.90;;;;;;4922785;29;20078;-73
2023/05/30 03:27:50;;;;;;;19.27;3.95;;;11.50;99.90;;;;;;4926231;29;20372;-73
2023/05/30 03:30:18;;;;;;;14.30;3.78;;;11.40;99.90;;;;;;4924564;29;20528;-73
2023/05/30 03:32:44;;;;;;;17.70;4.60;;;11.30;99.90;;;;;;4911464;29;20107;-73
2023/05/30 03:35:10;;;;;;;24.17;5.13;;;11.40;99.90;;;;;;4917378;29;20679;-73
2023/05/30 03:37:35;;;;;;;21.25;4.03;;;11.40;99.90;;;;;;4942898;29;20051;-73
2023/05/30 03:40:01;;;;;;;22.30;4.47;;;11.40;99.90;;;;;;4940795;29;20052;-72
2023/05/30 03:42:27;;;;;;;22.88;4.45;;;11.30;99.90;;;;;;4928374;29;20051;-72
2023/05/30 03:44:53;;;;;;;19.02;4.13;;;11.20;99.90;;;;;;4938014;29;20052;-73
2023/05/30 03:47:18;;;;;;;26.80;5.38;;;11.20;99.90;;;;;;4903288;29;20055;-72
2023/05/30 03:49:44;;;;;;;22.65;4.78;;;11.30;99.90;;;;;;4921942;29;20052;-72
2023/05/30 03:52:10;;;;;;;27.20;4.53;;;11.10;99.90;;;;;;4906641;29;20039;-73
2023/05/30 03:54:35;;;;;;;22.60;4.78;;;11.10;99.90;;;;;;4922606;29;20051;-72
2023/05/30 03:57:01;;;;;;;19.33;4.22;;;11.20;99.90;;;;;;4922445;29;20051;-72
2023/05/30 03:59:27;;;;;;;23.23;4.97;;;11.30;99.90;;;;;;4924323;29;20055;-73
2023/05/30 04:01:53;;;;;;;26.60;4.20;;;11.30;99.90;;;;;;4922071;29;20059;-73
2023/05/30 04:04:19;;;;;;;20.38;4.78;;;11.20;99.90;;;;;;4924998;29;20051;-72
2023/05/30 04:06:45;;;;;;;21.98;5.18;;;11.20;99.90;;;;;;4939627;29;20035;-73
2023/05/30 04:09:11;;;;;;;26.73;5.32;;;11.20;99.90;;;;;;4922708;29;20052;-72
2023/05/30 04:11:36;;;;;;;19.20;4.07;;;11.00;99.90;;;;;;4890741;29;20047;-73
2023/05/30 04:14:02;;;;;;;25.33;4.97;;;11.10;99.90;;;;;;4925973;29;20047;-73
2023/05/30 04:16:28;;;;;;;19.60;4.95;;;11.00;99.90;;;;;;4943108;29;20114;-73
2023/05/30 04:18:53;;;;;;;28.33;6.03;;;11.00;99.90;;;;;;4940471;29;20051;-73
2023/05/30 04:21:19;;;;;;;23.13;4.53;;;11.00;99.90;;;;;;4921673;29;20350;-73
2023/05/30 04:23:45;;;;;;;26.50;5.38;;;11.10;99.90;;;;;;4904903;29;20208;-72
2023/05/30 04:26:11;;;;;;;22.55;4.50;;;10.80;99.90;;;;;;4919011;29;20055;-73
2023/05/30 04:28:38;;;;;;;22.58;5.80;;;10.80;99.90;;;;;;4907565;29;20138;-73
2023/05/30 04:31:05;;;;;;;21.95;4.90;;;10.90;99.90;;;;;;4921102;29;20043;-73
2023/05/30 04:33:34;;;;;;;27.55;5.13;;;10.90;99.90;;;;;;4909604;29;20051;-73
2023/05/30 04:36:05;;;;;;;24.00;5.20;;;11.00;99.90;;;;;;4927098;29;20154;-73
2023/05/30 04:38:32;;;;;;;22.50;5.70;;;11.00;99.90;;;;;;4940369;29;20465;-73
2023/05/30 04:41:00;;;;;;;28.10;5.63;;;11.00;99.90;;;;;;4905980;29;20051;-73
2023/05/30 04:43:27;;;;;;;23.10;5.72;;;11.00;99.90;;;;;;4909756;29;20047;-73
2023/05/30 04:45:52;;;;;;;32.28;6.40;;;11.00;99.90;;;;;;4942544;29;20134;-72
2023/05/30 04:48:18;;;;;;;23.73;5.32;;;10.90;99.90;;;;;;4908036;29;20445;-73
2023/05/30 04:50:46;;;;;;;28.30;6.18;;;10.90;99.90;;;;;;4906427;29;20339;-73
2023/05/30 04:53:19;;;;;;;25.00;5.93;;;11.00;99.90;;;;;;4924902;29;20140;-72
2023/05/30 04:55:44;;;;;;;24.63;5.50;;;10.90;99.90;;;;;;4927822;29;20723;-73
2023/05/30 04:58:12;;;;;;;35.03;6.97;;;10.90;99.90;;;;;;4938417;29;20079;-73
2023/05/30 05:00:38;;;;;;;27.73;6.50;;;10.90;99.90;;;;;;4920835;29;20039;-73
2023/05/30 05:03:07;;;;;;;22.48;5.80;;;10.80;99.90;;;;;;4925154;29;20082;-73
2023/05/30 05:05:33;;;;;;;24.55;6.03;;;10.80;99.90;;;;;;4922179;29;20460;-73
2023/05/30 05:07:59;;;;;;;30.35;6.88;;;10.80;99.90;;;;;;4924451;29;20066;-73
2023/05/30 05:10:25;;;;;;;33.20;7.22;;;10.90;99.90;;;;;;4920962;29;20036;-73
2023/05/30 05:12:51;;;;;;;25.42;7.20;;;10.90;99.90;;;;;;4887871;29;20354;-73
2023/05/30 05:15:17;;;;;;;24.75;6.10;;;10.90;99.90;;;;;;4937844;29;20058;-73
2023/05/30 05:17:43;;;;;;;25.80;7.30;;;10.90;99.90;;;;;;4940519;29;20049;-73
2023/05/30 05:20:09;;;;;;;30.88;6.05;;;10.90;99.90;;;;;;4920564;29;20052;-72
2023/05/30 05:22:35;;;;;;;27.80;7.72;;;10.90;99.90;;;;;;4946155;29;20484;-73
2023/05/30 05:25:03;;;;;;;19.05;5.65;;;11.00;99.90;;;;;;4943042;29;20065;-73
2023/05/30 05:27:28;;;;;;;25.92;7.57;;;11.10;99.90;;;;;;4916668;29;20425;-73
2023/05/30 05:29:54;;;;;;;21.13;6.53;;;11.00;99.90;;;;;;4919560;29;20106;-73
2023/05/30 05:32:20;;;;;;;25.52;6.40;;;11.20;99.90;;;;;;4942217;29;20056;-72
2023/05/30 05:34:46;;;;;;;27.25;6.68;;;11.10;99.90;;;;;;4912390;29;20106;-72
2023/05/30 05:37:12;;;;;;;30.20;7.05;;;11.00;99.90;;;;;;4920205;29;20424;-72
2023/05/30 05:39:38;;;;;;;22.00;5.47;;;11.10;99.90;;;;;;4920453;29;20048;-72
2023/05/30 05:42:04;;;;;;;23.33;5.53;;;11.10;99.90;;;;;;4920791;29;20066;-75
2023/05/30 05:44:30;;;;;;;22.98;5.68;;;11.10;99.90;;;;;;4923319;29;20048;-74
2023/05/30 05:46:56;;;;;;;25.70;6.35;;;11.30;99.90;;;;;;4920671;29;20051;-74
2023/05/30 05:49:22;;;;;;;21.00;5.60;;;11.50;99.90;;;;;;4889324;29;20039;-74
2023/05/30 05:51:49;;;;;;;19.65;6.00;;;11.60;99.90;;;;;;4904422;29;20047;-73
2023/05/30 05:54:16;;;;;;;17.58;5.60;;;11.60;99.90;;;;;;4918108;29;20464;-73
2023/05/30 05:56:42;;;;;;;23.83;5.83;;;11.70;99.90;;;;;;4904029;29;20134;-73
2023/05/30 05:59:08;;;;;;;22.52;6.05;;;11.90;99.90;;;;;;4921483;29;20061;-74
2023/05/30 06:01:34;;;;;;;33.05;6.90;;;11.70;99.90;;;;;;4918687;29;20070;-74
2023/05/30 06:04:08;;;;;;;26.80;6.68;;;11.80;99.90;;;;;;4928610;29;20544;-73
2023/05/30 06:06:34;;;;;;;22.63;6.50;;;11.50;99.90;;;;;;4913680;29;20066;-73
2023/05/30 06:09:00;;;;;;;33.67;8.30;;;11.70;99.90;;;;;;4902615;29;20047;-73
2023/05/30 06:11:26;;;;;;;22.08;6.15;;;11.70;99.90;;;;;;4942049;29;20114;-74
2023/05/30 06:13:52;;;;;;;20.83;5.68;;;11.90;99.90;;;;;;4920702;29;20050;-74
2023/05/30 06:16:17;;;;;;;17.65;5.40;;;12.00;99.90;;;;;;4919981;29;20047;-74
2023/05/30 06:18:43;;;;;;;24.85;6.70;;;12.00;99.90;;;;;;4936395;29;20082;-74
2023/05/30 06:21:10;;;;;;;25.58;6.43;;;12.00;99.90;;;;;;4917185;29;20044;-74
2023/05/30 06:23:37;;;;;;;34.17;6.50;;;12.00;99.90;;;;;;4919923;29;20039;-74
2023/05/30 06:26:02;;;;;;;26.23;6.35;;;12.10;99.90;;;;;;4919728;29;20066;-73
2023/05/30 06:28:28;;;;;;;23.08;6.25;;;12.20;99.90;;;;;;4919776;29;20660;-73
2023/05/30 06:30:54;;;;;;;18.65;5.70;;;12.20;99.90;;;;;;4919667;29;20050;-73
2023/05/30 06:33:20;;;;;;;25.75;6.70;;;12.20;99.90;;;;;;4935352;29;20131;-74
2023/05/30 06:35:47;;;;;;;18.50;5.13;;;12.30;99.90;;;;;;4919087;29;20532;-73
2023/05/30 06:38:13;;;;;;;30.35;6.57;;;12.30;99.90;;;;;;4937350;29;20040;-74
2023/05/30 06:40:39;;;;;;;21.90;5.90;;;12.30;99.90;;;;;;4915481;29;20469;-74
2023/05/30 06:43:05;;;;;;;21.73;6.45;;;12.40;99.90;;;;;;4892287;29;20070;-73
2023/05/30 06:45:31;;;;;;;26.02;6.43;;;12.50;99.90;;;;;;4935384;29;20089;-74
2023/05/30 06:47:57;;;;;;;23.92;5.90;;;12.50;99.90;;;;;;4922608;29;20098;-74
2023/05/30 06:50:23;;;;;;;19.67;5.38;;;12.60;99.90;;;;;;4934998;29;20040;-73
2023/05/30 06:52:49;;;;;;;20.58;6.13;;;12.70;99.90;;;;;;4924053;29;20043;-74
2023/05/30 06:55:15;;;;;;;24.98;6.25;;;12.70;99.90;;;;;;4921261;29;20119;-73
2023/05/30 06:57:43;;;;;;;23.17;6.40;;;12.60;99.90;;;;;;4922262;29;20047;-75
2023/05/30 07:00:09;;;;;;;26.63;6.65;;;12.70;99.90;;;;;;4905493;29;20051;-74
2023/05/30 07:02:35;;;;;;;16.73;5.45;;;12.60;99.90;;;;;;4919209;29;20067;-74
2023/05/30 07:05:01;;;;;;;23.48;6.55;;;12.80;99.90;;;;;;4922315;29;20047;-74
2023/05/30 07:07:27;;;;;;;23.60;5.57;;;12.80;99.90;;;;;;4895262;29;20044;-74
2023/05/30 07:09:53;;;;;;;19.05;5.25;;;12.80;99.90;;;;;;4906749;29;20354;-74
2023/05/30 07:12:18;;;;;;;21.45;5.70;;;13.00;99.90;;;;;;4919600;29;20110;-74
2023/05/30 07:14:44;;;;;;;21.48;6.15;;;13.00;99.90;;;;;;4920291;29;20036;-74
2023/05/30 07:17:10;;;;;;;26.92;6.30;;;13.10;99.90;;;;;;4923627;29;20054;-74
2023/05/30 07:19:36;;;;;;;18.90;5.78;;;13.20;99.90;;;;;;4916323;29;20048;-74
2023/05/30 07:22:01;;;;;;;20.63;6.20;;;13.00;99.90;;;;;;4939948;29;20043;-73
2023/05/30 07:24:27;;;;;;;22.05;6.72;;;13.10;99.90;;;;;;4922951;29;20051;-74
2023/05/30 07:26:53;;;;;;;24.50;6.25;;;13.20;99.90;;;;;;4916691;29;20063;-74
2023/05/30 07:29:19;;;;;;;22.23;5.85;;;13.10;99.90;;;;;;4921287;29;20458;-74
2023/05/30 07:31:44;;;;;;;21.08;6.22;;;13.20;99.90;;;;;;4903453;29;20050;-74
2023/05/30 07:34:10;;;;;;;16.10;5.35;;;13.20;99.90;;;;;;4890939;29;20507;-74
2023/05/30 07:36:36;;;;;;;19.98;5.68;;;13.40;99.90;;;;;;4903839;29;20571;-75
2023/05/30 07:39:02;;;;;;;21.08;5.90;;;13.40;99.90;;;;;;4904106;29;20058;-75
2023/05/30 07:41:27;;;;;;;19.10;5.00;;;13.50;99.90;;;;;;4907192;29;20457;-74
2023/05/30 07:43:53;;;;;;;26.42;6.25;;;13.50;99.90;;;;;;4903337;29;20075;-73
2023/05/30 07:46:20;;;;;;;21.92;6.30;;;13.10;99.90;;;;;;4920582;29;20457;-74
2023/05/30 07:48:45;;;;;;;22.13;5.68;;;13.20;99.90;;;;;;4911026;29;20139;-74
2023/05/30 07:51:12;;;;;;;22.20;5.40;;;13.40;99.90;;;;;;4902000;29;20127;-74
2023/05/30 07:53:38;;;;;;;21.67;5.18;;;13.50;99.90;;;;;;4902946;29;20191;-74
2023/05/30 07:56:04;;;;;;;20.83;5.80;;;13.60;99.90;;;;;;4942328;29;20130;-74
2023/05/30 07:58:29;;;;;;;22.73;6.05;;;13.70;99.90;;;;;;4935303;29;20816;-74
2023/05/30 08:00:55;;;;;;;21.40;5.90;;;13.80;99.90;;;;;;4922100;29;20198;-74
2023/05/30 08:03:21;;;;;;;20.67;5.68;;;13.80;99.90;;;;;;4936147;29;20110;-74
2023/05/30 08:05:50;;;;;;;14.98;4.90;;;13.90;99.90;;;;;;4924645;29;20134;-74
2023/05/30 08:08:17;;;;;;;21.95;6.47;;;13.90;99.90;;;;;;4928856;29;20040;-74
2023/05/30 08:10:43;;;;;;;19.73;5.90;;;13.80;99.90;;;;;;4921205;29;20071;-73
2023/05/30 08:13:08;;;;;;;22.33;5.63;;;13.50;99.90;;;;;;4939269;29;20130;-73
2023/05/30 08:15:34;;;;;;;18.00;5.05;;;13.60;99.90;;;;;;4924181;29;20465;-73
2023/05/30 08:18:00;;;;;;;20.30;4.68;;;13.70;99.90;;;;;;4928900;29;20255;-73
2023/05/30 08:20:26;;;;;;;15.45;5.10;;;13.90;99.90;;;;;;4919976;29;20134;-74
2023/05/30 08:22:52;;;;;;;21.13;5.40;;;14.00;99.90;;;;;;4917746;29;20051;-74
2023/05/30 08:25:23;;;;;;;20.80;4.82;;;14.10;99.90;;;;;;4922165;29;20354;-73
2023/05/30 08:27:55;;;;;;;20.48;5.00;;;14.20;99.90;;;;;;4920534;29;20339;-74
2023/05/30 08:30:21;;;;;;;21.48;6.05;;;14.40;99.90;;;;;;4922429;29;20051;-73
2023/05/30 08:32:46;;;;;;;18.17;4.82;;;14.20;99.90;;;;;;4943200;29;20520;-73
2023/05/30 08:35:13;;;;;;;22.20;5.43;;;14.30;99.90;;;;;;4904619;29;20048;-73
2023/05/30 08:37:40;;;;;;;17.38;4.50;;;14.40;99.90;;;;;;4935722;29;20054;-74
2023/05/30 08:40:08;;;;;;;20.88;4.80;;;14.50;99.90;;;;;;4909666;29;20043;-73
2023/05/30 08:42:34;;;;;;;17.55;5.30;;;14.60;99.90;;;;;;4941749;29;20457;-73
2023/05/30 08:45:00;;;;;;;20.60;5.20;;;14.60;99.90;;;;;;4924404;29;20051;-73
2023/05/30 08:47:26;;;;;;;21.42;4.97;;;14.60;99.90;;;;;;4921504;29;20052;-73
2023/05/30 08:49:52;;;;;;;12.35;4.38;;;14.80;99.90;;;;;;4921806;29;20047;-73
2023/05/30 08:52:18;;;;;;;17.95;4.65;;;15.00;99.90;;;;;;4937767;29;20678;-74
2023/05/30 08:55:08;;;;;;;17.15;4.78;;;15.00;99.20;;;;;;4893268;29;20043;-74
2023/05/30 08:57:57;;;;;;;22.23;5.00;;;14.90;98.80;;;;;;4920892;29;20051;-74
2023/05/30 09:00:23;;;;;;;23.30;5.00;;;15.00;99.20;;;;;;4926343;29;20054;-73
2023/05/30 09:02:54;;;;;;;24.33;5.22;;;15.10;98.70;;;;;;4945378;29;20044;-73
2023/05/30 09:05:20;;;;;;;17.38;4.63;;;15.20;98.70;;;;;;4921366;29;20054;-73
2023/05/30 09:07:45;;;;;;;19.05;4.38;;;15.30;99.00;;;;;;4904763;29;20422;-74
2023/05/30 09:10:13;;;;;;;15.27;4.32;;;15.30;98.20;;;;;;4936172;29;20124;-73
2023/05/30 09:12:40;;;;;;;16.98;4.15;;;15.30;98.30;;;;;;4926664;29;20047;-73
2023/05/30 09:15:07;;;;;;;18.92;4.25;;;15.40;98.00;;;;;;4920145;29;20044;-73
2023/05/30 09:17:33;;;;;;;18.50;4.77;;;15.40;97.60;;;;;;4929881;29;20047;-73
2023/05/30 09:19:59;;;;;;;19.17;4.93;;;15.40;97.90;;;;;;4933431;29;20090;-74
2023/05/30 09:22:27;;;;;;;15.15;4.25;;;15.30;97.50;;;;;;4921214;29;20047;-74
2023/05/30 09:25:01;;;;;;;15.95;4.82;;;15.40;98.20;;;;;;4920693;29;20701;-74
2023/05/30 09:27:28;;;;;;;17.23;4.72;;;15.60;97.50;;;;;;4910758;29;20067;-74
2023/05/30 09:29:55;;;;;;;21.83;5.05;;;15.50;97.30;;;;;;4905711;29;20070;-73
2023/05/30 09:32:26;;;;;;;17.67;4.65;;;15.60;97.70;;;;;;4906380;29;20376;-73
2023/05/30 09:34:56;;;;;;;19.42;4.15;;;15.70;97.00;;;;;;4920821;29;20119;-74
2023/05/30 09:37:23;;;;;;;20.30;4.57;;;15.70;97.10;;;;;;4928390;29;20080;-73
2023/05/30 09:40:12;;;;;;;16.20;4.35;;;16.00;97.70;;;;;;4926898;29;20373;-73
2023/05/30 09:42:44;;;;;;;15.98;4.28;;;15.90;96.30;;;;;;4903644;29;20043;-73
2023/05/30 09:45:18;;;;;;;15.80;3.83;;;15.80;96.30;;;;;;4936752;29;20082;-73
2023/05/30 09:47:48;;;;;;;13.63;4.28;;;16.00;96.20;;;;;;4919785;29;20417;-72
2023/05/30 09:50:15;;;;;;;16.83;4.35;;;15.80;96.00;;;;;;4904623;29;20548;-73
2023/05/30 09:52:41;;;;;;;16.58;4.05;;;15.80;96.00;;;;;;4935313;29;20058;-73
2023/05/30 09:55:08;;;;;;;15.88;3.55;;;16.00;96.70;;;;;;4936779;29;20118;-73
2023/05/30 09:57:36;;;;;;;12.10;3.65;;;16.20;96.90;;;;;;4920063;29;20047;-74
2023/05/30 10:00:10;;;;;;;17.40;4.15;;;16.40;95.50;;;;;;4917725;29;20050;-72
2023/05/30 10:02:38;;;;;;;20.40;4.55;;;16.20;95.60;;;;;;4935184;29;20543;-72
2023/05/30 10:05:04;;;;;;;14.68;4.00;;;16.30;95.30;;;;;;4921316;29;20063;-73
2023/05/30 10:07:31;;;;;;;11.18;3.13;;;16.40;93.50;;;;;;4923092;29;20131;-73
2023/05/30 10:09:57;;;;;;;17.70;4.32;;;16.40;93.00;;;;;;4918515;29;20039;-73
2023/05/30 10:12:23;;;;;;;18.15;3.85;;;16.50;93.50;;;;;;4919435;29;20049;-73
2023/05/30 10:14:49;;;;;;;16.80;4.03;;;16.70;93.70;;;;;;4934760;29;20071;-73
2023/05/30 10:17:19;;;;;;;12.65;4.00;;;17.00;94.50;;;;;;4924100;29;20778;-72
2023/05/30 10:20:00;;;;;;;13.32;3.80;;;17.00;94.00;;;;;;4936369;29;20051;-72
2023/05/30 10:22:26;;;;;;;13.07;4.15;;;17.00;93.80;;;;;;4917978;29;20047;-73
2023/05/30 10:24:54;;;;;;;17.27;3.72;;;17.20;93.50;;;;;;4888603;29;20044;-73
2023/05/30 10:27:30;;;;;;;11.90;3.55;;;17.40;94.00;;;;;;4917838;29;20051;-73
2023/05/30 10:30:05;;;;;;;14.05;3.53;;;17.60;93.30;;;;;;4919846;29;20126;-73
2023/05/30 10:32:32;;;;;;;12.52;3.60;;;17.70;92.50;;;;;;4935340;29;20280;-73
2023/05/30 10:35:18;;;;;;;14.55;4.10;;;17.80;92.30;;;;;;4935305;29;20059;-73
2023/05/30 10:37:44;;;;;;;14.95;3.20;;;17.90;91.40;;;;;;4915380;29;20051;-73
2023/05/30 10:40:25;;;;;;;16.13;3.90;;;18.00;91.40;;;;;;4936214;29;20051;-73
2023/05/30 10:43:10;;;;;;;13.25;4.00;;;17.70;91.30;;;;;;4936280;29;20373;-73
2023/05/30 10:46:12;;;;;;;12.70;4.10;;;17.90;91.00;;;;;;4934994;29;20043;-72
2023/05/30 10:48:43;;;;;;;11.85;3.28;;;17.70;90.60;;;;;;4901173;29;20039;-73
2023/05/30 10:51:10;;;;;;;15.98;3.63;;;17.60;90.20;;;;;;4942443;29;20703;-73
2023/05/30 10:53:41;;;;;;;16.38;3.83;;;17.80;90.40;;;;;;4932098;29;20074;-73
2023/05/30 10:56:26;;;;;;;12.25;3.33;;;17.80;90.30;;;;;;4917329;29;20051;-72
2023/05/30 10:58:53;;;;;;;11.23;3.67;;;18.20;91.20;;;;;;4944629;29;20048;-72
2023/05/30 11:01:31;;;;;;;11.77;3.47;;;18.30;89.80;;;;;;4928448;29;20055;-72
2023/05/30 11:04:13;;;;;;;15.48;3.83;;;18.20;90.20;;;;;;4913495;29;20066;-73
2023/05/30 11:06:45;;;;;;;15.15;3.70;;;18.20;89.80;;;;;;4935932;29;20063;-73
2023/05/30 11:09:11;;;;;;;13.80;3.30;;;18.50;89.40;;;;;;4938202;29;20375;-73
2023/05/30 11:11:41;;;;;;;14.40;3.45;;;18.60;91.50;;;;;;4924786;29;20050;-73
2023/05/30 11:14:08;;;;;;;10.90;3.25;;;18.80;90.10;;;;;;4889875;29;20361;-73
2023/05/30 11:16:47;;;;;;;11.70;3.33;;;18.50;86.70;;;;;;4919929;29;20452;-73
2023/05/30 11:19:13;;;;;;;10.88;3.17;;;18.40;87.10;;;;;;4934560;29;20544;-73
2023/05/30 11:22:01;;;;;;;7.57;3.17;;;18.20;87.00;;;;;;4925446;29;20138;-73
2023/05/30 11:24:29;;;;;;;11.85;3.50;;;18.30;86.80;;;;;;4931700;29;20067;-73
2023/05/30 11:26:56;;;;;;;11.63;3.10;;;18.60;86.20;;;;;;4918921;29;20180;-73
2023/05/30 11:29:57;;;;;;;14.20;3.83;;;18.50;85.00;;;;;;4916884;29;20043;-73
2023/05/30 11:32:23;;;;;;;12.05;3.17;;;18.60;85.30;;;;;;4917223;29;20051;-73
2023/05/30 11:34:59;;;;;;;11.98;3.30;;;18.80;85.30;;;;;;4901242;29;20040;-73
2023/05/30 11:37:25;;;;;;;10.75;2.80;;;18.80;83.70;;;;;;4931365;29;20626;-73
2023/05/30 11:39:57;;;;;;;9.40;3.05;;;19.00;86.00;;;;;;4938037;29;20138;-72
2023/05/30 11:42:24;;;;;;;11.18;3.20;;;19.20;83.40;;;;;;4921727;29;20048;-73
2023/05/30 11:44:49;;;;;;;12.43;2.92;;;19.00;82.00;;;;;;4923468;29;20142;-73
2023/05/30 11:47:15;;;;;;;11.35;2.75;;;19.10;83.20;;;;;;4927538;29;20195;-74
2023/05/30 11:49:41;;;;;;;9.63;2.92;;;19.30;84.40;;;;;;4921891;29;20063;-73
2023/05/30 11:52:08;;;;;;;11.43;2.72;;;19.40;81.30;;;;;;4931364;29;20054;-73
2023/05/30 11:54:34;;;;;;;9.18;2.83;;;19.50;81.40;;;;;;4927612;29;20039;-74
2023/05/30 11:56:59;;;;;;;8.70;2.95;;;19.50;80.30;;;;;;4927807;29;20696;-74
2023/05/30 11:59:26;;;;;;;9.45;3.03;;;19.60;83.90;;;;;;4905696;29;20058;-74
2023/05/30 12:01:53;;;;;;;8.07;2.70;;;19.70;84.10;;;;;;4921454;29;20047;-74
2023/05/30 12:04:23;;;;;;;11.82;2.80;;;20.00;82.40;;;;;;4936478;29;20052;-74
2023/05/30 12:06:49;;;;;;;13.05;3.35;;;20.20;84.20;;;;;;4936677;29;20146;-74
2023/05/30 12:09:15;;;;;;;10.10;2.83;;;20.40;80.80;;;;;;4937416;29;20182;-74
2023/05/30 12:11:57;;;;;;;10.07;2.80;;;20.50;81.40;;;;;;4921250;29;20047;-74
2023/05/30 12:14:30;;;;;;;8.90;2.58;;;20.50;81.80;;;;;;4937390;29;20054;-74
2023/05/30 12:16:59;;;;;;;9.27;2.70;;;20.70;79.70;;;;;;4922196;29;20043;-74
2023/05/30 12:19:29;;;;;;;8.10;3.08;;;20.80;80.60;;;;;;4922558;29;20455;-74
2023/05/30 12:21:55;;;;;;;8.88;3.00;;;20.90;80.00;;;;;;4923634;29;20453;-74
2023/05/30 12:24:25;;;;;;;9.30;3.08;;;20.90;77.10;;;;;;4933229;29;20052;-73
2023/05/30 12:26:57;;;;;;;7.22;2.92;;;20.10;77.40;;;;;;4899563;29;20055;-73
2023/05/30 12:29:25;;;;;;;6.53;2.33;;;19.90;77.90;;;;;;4940003;29;20051;-74
2023/05/30 12:31:52;;;;;;;9.57;2.88;;;19.90;80.40;;;;;;4938406;29;20551;-74
2023/05/30 12:34:19;;;;;;;9.85;2.95;;;20.30;81.30;;;;;;4935095;29;20066;-74
2023/05/30 12:36:48;;;;;;;8.77;2.63;;;20.50;81.90;;;;;;4919951;29;20091;-74
2023/05/30 12:39:14;;;;;;;9.80;2.92;;;20.70;81.30;;;;;;4938094;29;20110;-74
2023/05/30 12:41:40;;;;;;;8.35;2.67;;;20.80;81.30;;;;;;4908282;29;20051;-73